Time;durP1;ratioP1;P1;durP2;ratioP2;P2;SDS_P1;SDS_P2;PMS_P1;PMS_P2;Temp;Humidity;BMP_temperature;BMP_pressure;BME280_temperature;BME280_humidity;BME280_pressure;Samples;Min_cycle;Max_cycle;Signal;HPM_P1;HPM_P2
2022/04/08 00:01:22;;;;;;;8.93;1.37;;;8.50;99.90;;;;;;5029345;28;20241;-73
2022/04/08 00:03:48;;;;;;;12.00;2.00;;;8.50;99.90;;;;;;5011337;28;20434;-73
2022/04/08 00:06:13;;;;;;;5.07;1.70;;;8.50;99.90;;;;;;5029061;28;20438;-73
2022/04/08 00:08:39;;;;;;;7.40;1.37;;;8.50;99.90;;;;;;5029104;28;20419;-73
2022/04/08 00:11:04;;;;;;;5.77;1.50;;;8.50;99.90;;;;;;5029102;28;20658;-73
2022/04/08 00:13:30;;;;;;;6.13;1.77;;;8.50;99.90;;;;;;5029143;28;20189;-73
2022/04/08 00:15:56;;;;;;;11.50;1.57;;;8.50;99.90;;;;;;5011293;28;20196;-73
2022/04/08 00:18:21;;;;;;;8.90;1.47;;;8.50;99.90;;;;;;5028874;28;20188;-73
2022/04/08 00:20:47;;;;;;;9.33;1.37;;;8.50;99.90;;;;;;5029224;28;20186;-73
2022/04/08 00:23:13;;;;;;;5.43;1.47;;;8.40;99.90;;;;;;5029280;28;20191;-73
2022/04/08 00:25:39;;;;;;;8.17;1.40;;;8.50;99.90;;;;;;5028677;28;20463;-73
2022/04/08 00:28:05;;;;;;;5.70;1.40;;;8.50;99.90;;;;;;5012001;28;20427;-73
2022/04/08 00:30:30;;;;;;;2.17;0.70;;;8.50;99.90;;;;;;5029997;28;20179;-73
2022/04/08 00:32:57;;;;;;;7.20;1.10;;;8.50;99.90;;;;;;5029682;28;20991;-72
2022/04/08 00:35:23;;;;;;;5.03;1.10;;;8.40;99.90;;;;;;5029841;28;20199;-73
2022/04/08 00:37:50;;;;;;;3.17;1.10;;;8.50;99.90;;;;;;5029438;28;20864;-73
2022/04/08 00:40:16;;;;;;;4.47;1.53;;;8.50;99.90;;;;;;5029270;28;20471;-73
2022/04/08 00:42:43;;;;;;;4.53;1.07;;;8.50;99.90;;;;;;5029358;28;20551;-74
2022/04/08 00:45:09;;;;;;;3.57;1.00;;;8.40;99.90;;;;;;5010618;28;20501;-73
2022/04/08 00:47:36;;;;;;;2.83;1.33;;;8.40;99.90;;;;;;5028144;28;20424;-73
2022/04/08 00:50:04;;;;;;;6.77;1.37;;;8.40;99.90;;;;;;5028232;28;20424;-72
2022/04/08 00:52:33;;;;;;;6.40;1.80;;;8.40;99.90;;;;;;5028066;28;20509;-73
2022/04/08 00:54:59;;;;;;;4.20;1.00;;;8.40;99.90;;;;;;5010620;28;20795;-73
2022/04/08 00:57:25;;;;;;;7.80;1.20;;;8.40;99.90;;;;;;5028131;28;20969;-73
2022/04/08 00:59:51;;;;;;;1.83;1.10;;;8.40;99.90;;;;;;5010354;28;20467;-73
2022/04/08 01:02:17;;;;;;;4.67;1.07;;;8.40;99.90;;;;;;5028137;28;20173;-73
2022/04/08 01:04:42;;;;;;;5.43;1.33;;;8.40;99.90;;;;;;5027933;28;20420;-73
2022/04/08 01:07:08;;;;;;;3.20;1.33;;;8.40;99.90;;;;;;5030393;28;20185;-73
2022/04/08 01:09:34;;;;;;;8.07;1.30;;;8.40;99.90;;;;;;5031592;28;20215;-73
2022/04/08 01:12:00;;;;;;;7.70;1.53;;;8.40;99.90;;;;;;5013498;28;20614;-73
2022/04/08 01:14:26;;;;;;;2.30;1.13;;;8.50;99.90;;;;;;5013777;28;20513;-72
2022/04/08 01:16:51;;;;;;;1.77;1.10;;;8.40;99.90;;;;;;5013445;28;20242;-73
2022/04/08 01:19:17;;;;;;;4.70;1.27;;;8.40;99.90;;;;;;5031334;28;20271;-72
2022/04/08 01:21:42;;;;;;;3.03;0.90;;;8.30;99.90;;;;;;5031489;28;20184;-72
2022/04/08 01:24:14;;;;;;;8.33;1.10;;;8.40;99.90;;;;;;5031180;28;20192;-72
2022/04/08 01:26:41;;;;;;;3.03;0.90;;;8.40;99.90;;;;;;5013295;28;20208;-72
2022/04/08 01:29:07;;;;;;;6.13;1.23;;;8.40;99.90;;;;;;5013479;28;20443;-77
2022/04/08 01:31:33;;;;;;;8.07;1.17;;;8.40;99.90;;;;;;5031391;28;20407;-74
2022/04/08 01:33:59;;;;;;;7.97;1.23;;;8.40;99.90;;;;;;5031839;28;20412;-75
2022/04/08 01:36:25;;;;;;;6.73;1.30;;;8.40;99.90;;;;;;5014040;28;20581;-73
2022/04/08 01:38:51;;;;;;;8.10;1.50;;;8.30;99.90;;;;;;5031358;28;20463;-73
2022/04/08 01:41:16;;;;;;;10.53;1.37;;;8.30;99.90;;;;;;5031362;28;20427;-73
2022/04/08 01:43:45;;;;;;;8.10;1.30;;;8.30;99.90;;;;;;5031394;28;20177;-73
2022/04/08 01:46:11;;;;;;;7.07;1.40;;;8.40;99.90;;;;;;5032063;28;20212;-74
2022/04/08 01:48:37;;;;;;;6.43;1.30;;;8.40;99.90;;;;;;5031783;28;20491;-72
2022/04/08 01:51:04;;;;;;;5.17;1.23;;;8.50;99.90;;;;;;5031826;28;20561;-74
2022/04/08 01:53:29;;;;;;;7.07;1.50;;;8.40;99.90;;;;;;5031818;28;20419;-73
2022/04/08 01:55:55;;;;;;;4.23;1.10;;;8.30;99.90;;;;;;5031198;28;20452;-74
2022/04/08 01:58:20;;;;;;;2.50;0.93;;;8.40;99.90;;;;;;5030878;28;20188;-73
2022/04/08 02:00:46;;;;;;;5.73;1.20;;;8.40;99.90;;;;;;5030892;28;20180;-74
2022/04/08 02:03:12;;;;;;;13.63;1.53;;;8.40;99.90;;;;;;4996989;28;20185;-72
2022/04/08 02:05:38;;;;;;;3.63;1.03;;;8.30;99.90;;;;;;5030844;28;20573;-73
2022/04/08 02:08:04;;;;;;;4.73;1.37;;;8.30;99.90;;;;;;5030938;28;20177;-73
2022/04/08 02:10:29;;;;;;;3.60;1.57;;;8.30;99.90;;;;;;5030910;28;20307;-74
2022/04/08 02:12:55;;;;;;;4.13;1.10;;;8.30;99.90;;;;;;5013048;28;20427;-73
2022/04/08 02:15:28;;;;;;;7.23;0.90;;;8.30;99.90;;;;;;5030785;28;20835;-73
2022/04/08 02:17:55;;;;;;;7.90;1.40;;;8.30;99.90;;;;;;5030775;28;20185;-73
2022/04/08 02:20:20;;;;;;;6.03;1.27;;;8.30;99.90;;;;;;5013982;28;21301;-72
2022/04/08 02:22:46;;;;;;;7.70;1.00;;;8.30;99.90;;;;;;5030755;28;20415;-73
2022/04/08 02:25:12;;;;;;;8.57;1.30;;;8.30;99.90;;;;;;5012312;28;20586;-73
2022/04/08 02:27:38;;;;;;;6.57;1.23;;;8.30;99.90;;;;;;5030256;28;20187;-73
2022/04/08 02:30:04;;;;;;;2.40;1.17;;;8.30;99.90;;;;;;5012684;28;20185;-72
2022/04/08 02:32:29;;;;;;;1.77;0.97;;;8.30;99.90;;;;;;5030616;28;20427;-72
2022/04/08 02:34:55;;;;;;;7.10;1.20;;;8.30;99.90;;;;;;5012179;28;20453;-72
2022/04/08 02:37:21;;;;;;;5.90;1.07;;;8.30;99.90;;;;;;5012346;28;20650;-71
2022/04/08 02:39:46;;;;;;;6.30;1.30;;;8.40;99.90;;;;;;5011998;28;20215;-71
2022/04/08 02:42:12;;;;;;;1.60;0.90;;;8.30;99.90;;;;;;5029352;28;20255;-72
2022/04/08 02:44:38;;;;;;;6.53;1.27;;;8.30;99.90;;;;;;5029369;28;20184;-73
2022/04/08 02:47:04;;;;;;;9.03;1.40;;;8.30;99.90;;;;;;5011873;28;20180;-72
2022/04/08 02:49:29;;;;;;;3.73;1.10;;;8.30;99.90;;;;;;5011761;28;20213;-72
2022/04/08 02:51:55;;;;;;;2.93;0.80;;;8.30;99.90;;;;;;5011983;28;20501;-73
2022/04/08 02:54:21;;;;;;;7.20;1.30;;;8.30;99.90;;;;;;5029697;28;20621;-72
2022/04/08 02:56:46;;;;;;;5.27;1.10;;;8.30;99.90;;;;;;5011670;28;20208;-72
2022/04/08 02:59:12;;;;;;;2.37;1.20;;;8.30;99.90;;;;;;5029568;28;20854;-72
2022/04/08 03:01:38;;;;;;;3.73;0.97;;;8.20;99.90;;;;;;5029830;28;20210;-71
2022/04/08 03:04:08;;;;;;;3.67;0.87;;;8.20;99.90;;;;;;5030218;28;20437;-72
2022/04/08 03:06:34;;;;;;;3.93;1.40;;;8.20;99.90;;;;;;5012919;28;20450;-73
2022/04/08 03:09:00;;;;;;;2.20;0.90;;;8.20;99.90;;;;;;5030137;28;20424;-73
2022/04/08 03:11:26;;;;;;;6.63;1.43;;;8.20;99.90;;;;;;5030074;28;20189;-73
2022/04/08 03:13:52;;;;;;;4.80;1.60;;;8.10;99.90;;;;;;5029720;28;20956;-73
2022/04/08 03:16:17;;;;;;;2.37;0.80;;;8.10;99.90;;;;;;5029537;28;20204;-73
2022/04/08 03:18:46;;;;;;;4.20;0.90;;;8.10;99.90;;;;;;5029405;28;20206;-73
2022/04/08 03:21:12;;;;;;;2.13;0.70;;;8.00;99.90;;;;;;5029518;28;20263;-72
2022/04/08 03:23:39;;;;;;;4.30;0.90;;;7.90;99.90;;;;;;5029379;28;20502;-72
2022/04/08 03:26:05;;;;;;;2.47;0.70;;;8.00;99.90;;;;;;5029212;28;20968;-72
2022/04/08 03:28:31;;;;;;;3.33;0.80;;;8.00;99.90;;;;;;5029159;28;20466;-72
2022/04/08 03:30:58;;;;;;;3.07;0.80;;;8.00;99.90;;;;;;5029254;28;20426;-72
2022/04/08 03:33:23;;;;;;;9.57;1.10;;;7.90;99.90;;;;;;5029129;28;20404;-72
2022/04/08 03:35:49;;;;;;;5.03;0.87;;;7.90;99.90;;;;;;5029092;28;20569;-73
2022/04/08 03:38:15;;;;;;;4.50;1.10;;;7.90;99.90;;;;;;5011149;28;20180;-73
2022/04/08 03:40:40;;;;;;;5.60;1.03;;;7.90;99.90;;;;;;5029187;28;20811;-74
2022/04/08 03:43:06;;;;;;;2.73;0.90;;;7.90;99.90;;;;;;5029139;28;20186;-73
2022/04/08 03:45:31;;;;;;;7.20;1.20;;;7.90;99.90;;;;;;5028990;28;20979;-73
2022/04/08 03:47:57;;;;;;;4.30;0.70;;;7.90;99.90;;;;;;5029120;28;20586;-73
2022/04/08 03:50:23;;;;;;;2.30;0.70;;;7.90;99.90;;;;;;5029010;28;20732;-72
2022/04/08 03:52:49;;;;;;;4.67;0.87;;;7.90;99.90;;;;;;5028959;28;20684;-72
2022/04/08 03:55:14;;;;;;;2.30;0.60;;;7.90;99.90;;;;;;5028845;28;20208;-72
2022/04/08 03:57:40;;;;;;;3.27;0.70;;;7.80;99.90;;;;;;5028904;28;20421;-72
2022/04/08 04:00:08;;;;;;;5.37;1.27;;;7.80;99.90;;;;;;4994872;28;20306;-72
2022/04/08 04:02:33;;;;;;;5.53;0.90;;;7.80;99.90;;;;;;5011375;28;20236;-72
2022/04/08 04:04:59;;;;;;;1.93;0.73;;;7.80;99.90;;;;;;5029160;28;20994;-73
2022/04/08 04:07:29;;;;;;;4.60;0.90;;;7.80;99.90;;;;;;5029376;28;20825;-75
2022/04/08 04:09:54;;;;;;;2.97;0.87;;;7.80;99.90;;;;;;5029466;28;20184;-75
2022/04/08 04:12:20;;;;;;;4.37;0.80;;;7.80;99.90;;;;;;4995234;28;20619;-75
2022/04/08 04:14:46;;;;;;;6.30;1.60;;;7.80;99.90;;;;;;5029141;28;20653;-74
2022/04/08 04:17:11;;;;;;;3.07;1.10;;;7.80;99.90;;;;;;5029066;28;20188;-74
2022/04/08 04:19:37;;;;;;;1.80;0.63;;;7.80;99.90;;;;;;5011560;28;20208;-75
2022/04/08 04:22:04;;;;;;;7.60;1.23;;;7.80;99.90;;;;;;5029203;28;20181;-74
2022/04/08 04:24:29;;;;;;;3.40;0.90;;;7.80;99.90;;;;;;5028993;28;20865;-74
2022/04/08 04:26:55;;;;;;;2.40;0.90;;;7.80;99.90;;;;;;5028964;28;20442;-73
2022/04/08 04:29:21;;;;;;;4.80;1.10;;;7.80;99.90;;;;;;5028792;28;20184;-76
2022/04/08 04:31:47;;;;;;;6.47;0.90;;;7.80;99.90;;;;;;5028663;28;20686;-76
2022/04/08 04:34:13;;;;;;;4.10;1.30;;;7.80;99.90;;;;;;5010987;28;20181;-76
2022/04/08 04:36:39;;;;;;;2.00;0.77;;;7.80;99.90;;;;;;5010874;28;21283;-76
2022/04/08 04:39:04;;;;;;;2.53;1.00;;;7.80;99.90;;;;;;5028812;28;20455;-75
2022/04/08 04:41:32;;;;;;;2.03;0.77;;;7.80;99.90;;;;;;5030602;28;20185;-75
2022/04/08 04:43:57;;;;;;;2.60;1.20;;;7.80;99.90;;;;;;5032818;28;20200;-75
2022/04/08 04:46:23;;;;;;;9.67;1.77;;;7.80;99.90;;;;;;5033613;28;20482;-75
2022/04/08 04:48:49;;;;;;;4.33;1.00;;;7.80;99.90;;;;;;5032741;28;20287;-75
2022/04/08 04:51:16;;;;;;;4.17;0.97;;;7.80;99.90;;;;;;5032867;28;20219;-75
2022/04/08 04:53:42;;;;;;;5.03;1.17;;;7.80;99.90;;;;;;5033059;28;20177;-75
2022/04/08 04:56:08;;;;;;;2.43;1.00;;;7.80;99.90;;;;;;5032475;28;20583;-75
2022/04/08 04:58:33;;;;;;;3.57;0.77;;;7.80;99.90;;;;;;5032134;28;20415;-75
2022/04/08 05:00:59;;;;;;;5.97;1.30;;;7.80;99.90;;;;;;5031849;28;20176;-75
2022/04/08 05:03:25;;;;;;;4.20;1.03;;;7.80;99.90;;;;;;5030721;28;20210;-75
2022/04/08 05:05:53;;;;;;;3.47;1.10;;;7.80;99.90;;;;;;5030259;28;20197;-75
2022/04/08 05:08:20;;;;;;;6.30;1.10;;;7.80;99.90;;;;;;5030182;28;20188;-75
2022/04/08 05:10:46;;;;;;;4.73;1.10;;;7.80;99.90;;;;;;5030470;28;21147;-75
2022/04/08 05:13:12;;;;;;;4.97;0.80;;;7.80;99.90;;;;;;5030075;28;20442;-75
2022/04/08 05:15:42;;;;;;;7.13;0.97;;;7.80;99.90;;;;;;5030021;28;20434;-75
2022/04/08 05:18:08;;;;;;;5.43;1.17;;;7.80;99.90;;;;;;5030105;28;20184;-75
2022/04/08 05:20:34;;;;;;;2.77;0.87;;;7.80;99.90;;;;;;5011774;28;20590;-75
2022/04/08 05:23:00;;;;;;;5.50;0.90;;;7.80;99.90;;;;;;5030440;28;20514;-75
2022/04/08 05:25:26;;;;;;;1.97;0.90;;;7.80;99.90;;;;;;5012230;28;20688;-75
2022/04/08 05:27:52;;;;;;;4.20;0.83;;;7.80;99.90;;;;;;5030311;28;20227;-75
2022/04/08 05:30:17;;;;;;;3.10;0.90;;;7.70;99.90;;;;;;5030363;28;20425;-75
2022/04/08 05:32:47;;;;;;;8.67;1.00;;;7.70;99.90;;;;;;5012209;28;20192;-75
2022/04/08 05:35:16;;;;;;;7.20;1.33;;;7.60;99.90;;;;;;5030356;28;20728;-75
2022/04/08 05:37:46;;;;;;;7.53;1.00;;;7.60;99.90;;;;;;5030518;28;20500;-76
2022/04/08 05:40:15;;;;;;;4.30;1.37;;;7.60;99.90;;;;;;5030091;28;20570;-75
2022/04/08 05:42:42;;;;;;;4.63;1.20;;;7.60;99.90;;;;;;5030023;28;20415;-75
2022/04/08 05:45:09;;;;;;;5.03;1.13;;;7.60;99.90;;;;;;5030049;28;20468;-76
2022/04/08 05:47:35;;;;;;;6.63;1.50;;;7.60;99.90;;;;;;5012423;28;20480;-76
2022/04/08 05:50:01;;;;;;;7.30;1.20;;;7.60;99.90;;;;;;5030132;28;20422;-75
2022/04/08 05:52:27;;;;;;;7.70;1.20;;;7.60;99.90;;;;;;5029729;28;20420;-75
2022/04/08 05:54:53;;;;;;;7.20;1.03;;;7.60;99.90;;;;;;5011729;28;20458;-75
2022/04/08 05:57:19;;;;;;;3.67;1.37;;;7.60;99.90;;;;;;5029978;28;20569;-75
2022/04/08 05:59:48;;;;;;;6.10;1.50;;;7.60;99.90;;;;;;5029958;28;20463;-75
2022/04/08 06:02:15;;;;;;;3.70;1.30;;;7.60;99.90;;;;;;5011836;28;20839;-75
2022/04/08 06:04:41;;;;;;;4.60;0.80;;;7.50;99.90;;;;;;5029639;28;20423;-75
2022/04/08 06:07:07;;;;;;;8.57;1.33;;;7.50;99.90;;;;;;5029699;28;20810;-75
2022/04/08 06:09:33;;;;;;;3.03;1.20;;;7.50;99.90;;;;;;5011579;28;20462;-76
2022/04/08 06:12:02;;;;;;;11.73;1.37;;;7.50;99.90;;;;;;4995277;28;20423;-75
2022/04/08 06:14:27;;;;;;;2.50;0.80;;;7.40;99.90;;;;;;5012117;28;20419;-75
2022/04/08 06:16:54;;;;;;;6.20;1.00;;;7.40;99.90;;;;;;5029377;28;20961;-75
2022/04/08 06:19:19;;;;;;;2.70;0.87;;;7.30;99.90;;;;;;5029588;28;20230;-75
2022/04/08 06:21:45;;;;;;;5.40;1.07;;;7.30;99.90;;;;;;5029729;28;20991;-75
2022/04/08 06:24:11;;;;;;;3.70;1.10;;;7.30;99.90;;;;;;5029327;28;20197;-76
2022/04/08 06:26:38;;;;;;;3.87;0.70;;;7.30;99.90;;;;;;5030070;28;20573;-75
2022/04/08 06:29:04;;;;;;;2.93;1.10;;;7.40;99.90;;;;;;5029497;28;20191;-75
2022/04/08 06:31:32;;;;;;;2.23;0.80;;;7.40;99.90;;;;;;5029461;28;20427;-76
2022/04/08 06:33:59;;;;;;;3.83;1.10;;;7.30;99.90;;;;;;5011026;28;20435;-75
2022/04/08 06:36:25;;;;;;;2.07;0.90;;;7.30;99.90;;;;;;5011311;28;20542;-76
2022/04/08 06:38:51;;;;;;;4.10;1.17;;;7.30;99.90;;;;;;5028632;28;20463;-76
2022/04/08 06:41:16;;;;;;;3.60;1.53;;;7.20;99.90;;;;;;5028862;28;21314;-76
2022/04/08 06:43:42;;;;;;;2.30;0.97;;;7.20;99.90;;;;;;5028556;28;20672;-76
2022/04/08 06:46:08;;;;;;;3.57;1.00;;;7.20;99.90;;;;;;5028459;28;20619;-76
2022/04/08 06:48:33;;;;;;;3.83;0.93;;;7.10;99.90;;;;;;5010563;28;20665;-76
2022/04/08 06:51:00;;;;;;;4.00;1.07;;;7.00;99.90;;;;;;5010199;28;20271;-76
2022/04/08 06:53:26;;;;;;;7.67;1.13;;;6.90;99.90;;;;;;5028234;28;20665;-76
2022/04/08 06:55:52;;;;;;;5.83;1.40;;;6.90;99.90;;;;;;5010091;28;20447;-76
2022/04/08 06:58:19;;;;;;;2.40;1.20;;;6.90;99.90;;;;;;5010185;28;20557;-76
2022/04/08 07:00:45;;;;;;;9.23;1.10;;;6.80;99.90;;;;;;5027992;28;21280;-76
2022/04/08 07:03:11;;;;;;;4.67;1.50;;;6.60;99.90;;;;;;5008704;28;21229;-76
2022/04/08 07:05:36;;;;;;;5.17;1.20;;;6.80;99.90;;;;;;5009673;28;20430;-75
2022/04/08 07:08:03;;;;;;;2.13;1.00;;;6.80;99.90;;;;;;5010043;28;20185;-76
2022/04/08 07:10:29;;;;;;;4.67;1.37;;;6.90;99.90;;;;;;5027840;28;20318;-76
2022/04/08 07:12:54;;;;;;;6.20;1.40;;;6.90;99.90;;;;;;5027648;28;20505;-76
2022/04/08 07:15:20;;;;;;;4.33;1.03;;;6.70;99.90;;;;;;5010217;28;20216;-76
2022/04/08 07:17:46;;;;;;;5.87;1.07;;;6.80;99.90;;;;;;5009856;28;20192;-76
2022/04/08 07:20:14;;;;;;;7.50;0.90;;;6.70;99.90;;;;;;5009643;28;20220;-76
2022/04/08 07:22:41;;;;;;;3.53;1.00;;;6.80;99.90;;;;;;5027608;28;20943;-76
2022/04/08 07:25:07;;;;;;;4.70;0.57;;;6.80;99.90;;;;;;5027396;28;20513;-76
2022/04/08 07:27:49;;;;;;;3.03;0.70;;;6.80;99.90;;;;;;5009946;28;20991;-76
2022/04/08 07:30:17;;;;;;;3.07;0.83;;;6.90;99.90;;;;;;5027587;28;20928;-75
2022/04/08 07:32:44;;;;;;;4.33;0.80;;;6.80;99.90;;;;;;5009563;28;20431;-76
2022/04/08 07:35:10;;;;;;;2.17;0.70;;;6.80;99.90;;;;;;5027309;28;20446;-76
2022/04/08 07:37:36;;;;;;;3.73;1.20;;;6.90;99.90;;;;;;5009782;28;20447;-76
2022/04/08 07:40:09;;;;;;;1.77;0.80;;;7.00;99.90;;;;;;5027261;28;20911;-76
2022/04/08 07:42:35;;;;;;;2.30;0.93;;;6.90;99.90;;;;;;5027481;28;20290;-76
2022/04/08 07:45:01;;;;;;;2.40;0.70;;;7.00;99.90;;;;;;5026993;28;20446;-76
2022/04/08 07:47:27;;;;;;;2.50;1.47;;;7.00;99.90;;;;;;5027561;28;20423;-76
2022/04/08 07:50:14;;;;;;;1.00;0.80;;;6.90;99.90;;;;;;5027002;28;20423;-76
2022/04/08 07:52:41;;;;;;;4.30;0.90;;;6.90;99.90;;;;;;5027253;28;20562;-76
2022/04/08 07:55:08;;;;;;;5.80;1.00;;;6.90;99.90;;;;;;5027029;28;20439;-76
2022/04/08 07:57:33;;;;;;;1.00;0.60;;;6.90;99.90;;;;;;5026876;28;20423;-76
2022/04/08 07:59:59;;;;;;;1.90;0.93;;;6.80;99.90;;;;;;4992620;28;20854;-76
2022/04/08 08:02:26;;;;;;;2.10;0.70;;;6.90;99.90;;;;;;5009369;28;20419;-76
2022/04/08 08:04:52;;;;;;;4.00;0.70;;;7.20;99.90;;;;;;5026786;28;20197;-76
2022/04/08 08:07:18;;;;;;;2.03;0.60;;;7.20;99.90;;;;;;5027033;28;20468;-76
2022/04/08 08:09:44;;;;;;;4.60;0.80;;;7.10;99.90;;;;;;5009249;28;20470;-77
2022/04/08 08:12:09;;;;;;;1.80;0.70;;;7.30;99.90;;;;;;5027061;28;20188;-76
2022/04/08 08:14:35;;;;;;;5.33;1.17;;;7.40;99.90;;;;;;5009280;28;20196;-76
2022/04/08 08:17:01;;;;;;;3.13;0.73;;;7.40;99.90;;;;;;5031236;28;20194;-76
2022/04/08 08:19:28;;;;;;;1.97;0.90;;;7.30;99.90;;;;;;5030793;28;20215;-76
2022/04/08 08:21:54;;;;;;;2.70;0.80;;;7.30;99.90;;;;;;5012882;28;21057;-76
2022/04/08 08:24:20;;;;;;;1.10;0.63;;;7.20;99.90;;;;;;5013045;28;20869;-76
2022/04/08 08:26:46;;;;;;;0.80;0.70;;;7.20;99.90;;;;;;5013336;28;20446;-76
2022/04/08 08:29:11;;;;;;;0.80;0.60;;;7.10;99.90;;;;;;5013011;28;20949;-76
2022/04/08 08:31:37;;;;;;;1.47;0.40;;;7.10;99.90;;;;;;5012834;28;20242;-76
2022/04/08 08:34:03;;;;;;;1.87;0.73;;;7.10;99.90;;;;;;5030838;28;20223;-76
2022/04/08 08:36:29;;;;;;;1.33;0.50;;;7.10;99.90;;;;;;5012719;28;20258;-76
2022/04/08 08:38:55;;;;;;;0.97;0.50;;;6.90;99.90;;;;;;5012807;28;20641;-76
2022/04/08 08:41:23;;;;;;;3.27;0.70;;;7.00;99.90;;;;;;5012742;28;20529;-76
2022/04/08 08:43:51;;;;;;;0.70;0.50;;;7.10;99.90;;;;;;5030701;28;20554;-76
2022/04/08 08:46:18;;;;;;;3.23;0.50;;;7.30;99.90;;;;;;5030661;28;20439;-75
2022/04/08 08:48:45;;;;;;;3.00;0.50;;;7.50;99.90;;;;;;5030532;28;20412;-76
2022/04/08 08:51:13;;;;;;;0.73;0.40;;;7.60;99.90;;;;;;5012777;28;20538;-76
2022/04/08 08:53:41;;;;;;;0.70;0.40;;;7.40;99.90;;;;;;5030582;28;20985;-76
2022/04/08 08:56:07;;;;;;;1.67;0.50;;;7.30;99.90;;;;;;5030409;28;20454;-76
2022/04/08 08:58:34;;;;;;;2.00;0.60;;;7.40;99.90;;;;;;5015141;28;20422;-75
2022/04/08 09:01:00;;;;;;;0.67;0.50;;;7.60;99.90;;;;;;4998495;28;20437;-75
2022/04/08 09:03:29;;;;;;;2.63;0.70;;;7.70;99.90;;;;;;5032288;28;20441;-75
2022/04/08 09:06:04;;;;;;;1.37;0.93;;;7.70;99.90;;;;;;5031734;28;21027;-75
2022/04/08 09:08:34;;;;;;;4.50;0.57;;;7.70;99.90;;;;;;5034650;28;20414;-76
2022/04/08 09:10:59;;;;;;;0.70;0.60;;;7.70;99.90;;;;;;5031181;28;20411;-76
2022/04/08 09:13:26;;;;;;;1.33;0.40;;;7.80;99.90;;;;;;5030334;28;20999;-76
2022/04/08 09:16:00;;;;;;;0.87;0.50;;;7.90;99.90;;;;;;5011946;28;20219;-75
2022/04/08 09:18:30;;;;;;;0.90;0.43;;;8.10;99.90;;;;;;5029828;28;20426;-76
2022/04/08 09:20:59;;;;;;;0.70;0.40;;;8.10;99.90;;;;;;5012776;28;20440;-76
2022/04/08 09:23:26;;;;;;;2.13;0.40;;;8.20;99.90;;;;;;5012959;28;21255;-75
2022/04/08 09:26:03;;;;;;;1.83;0.60;;;8.40;99.90;;;;;;5011589;28;20474;-76
2022/04/08 09:28:37;;;;;;;1.67;0.50;;;8.60;99.90;;;;;;5029161;28;20868;-75
2022/04/08 09:31:04;;;;;;;0.70;0.50;;;8.70;99.90;;;;;;5029746;28;20424;-76
2022/04/08 09:33:30;;;;;;;0.80;0.40;;;8.60;99.90;;;;;;5029676;28;20462;-76
2022/04/08 09:35:58;;;;;;;0.60;0.40;;;8.60;99.90;;;;;;5029459;28;20447;-75
2022/04/08 09:38:30;;;;;;;2.53;1.23;;;8.80;99.90;;;;;;5029655;28;20470;-76
2022/04/08 09:41:10;;;;;;;1.00;0.50;;;8.90;99.90;;;;;;5029696;28;20442;-76
2022/04/08 09:43:37;;;;;;;1.00;0.40;;;9.00;99.90;;;;;;5029376;28;20407;-76
2022/04/08 09:46:19;;;;;;;1.73;0.43;;;8.90;99.90;;;;;;5029526;28;20465;-76
2022/04/08 09:48:47;;;;;;;0.70;0.40;;;8.90;99.90;;;;;;5011433;28;20408;-76
2022/04/08 09:51:20;;;;;;;0.70;0.40;;;8.90;99.90;;;;;;5011699;28;20417;-76
2022/04/08 09:53:53;;;;;;;0.70;0.47;;;8.80;99.90;;;;;;5029164;28;20422;-76
2022/04/08 09:56:22;;;;;;;1.50;0.87;;;8.80;99.90;;;;;;5029141;28;20427;-76
2022/04/08 09:59:13;;;;;;;1.27;1.03;;;8.90;99.90;;;;;;5029092;28;21065;-75
2022/04/08 10:01:40;;;;;;;3.13;2.80;;;8.90;99.90;;;;;;5029513;28;20882;-75
2022/04/08 10:04:08;;;;;;;0.93;0.80;;;8.90;99.90;;;;;;5028878;28;20415;-76
2022/04/08 10:06:35;;;;;;;1.07;0.80;;;8.90;99.90;;;;;;5028926;28;20443;-76
2022/04/08 10:09:03;;;;;;;1.43;1.33;;;8.90;99.90;;;;;;5029076;28;20420;-75
2022/04/08 10:11:54;;;;;;;1.73;0.70;;;8.90;99.90;;;;;;5028828;28;20411;-76
2022/04/08 10:14:43;;;;;;;1.40;0.70;;;8.90;99.90;;;;;;5010848;28;20541;-75
2022/04/08 10:17:09;;;;;;;6.30;1.23;;;8.80;99.90;;;;;;5029067;28;20419;-76
2022/04/08 10:19:35;;;;;;;1.00;0.73;;;8.60;99.90;;;;;;5028721;28;20551;-76
2022/04/08 10:22:01;;;;;;;1.00;0.63;;;8.60;99.90;;;;;;5028978;28;20414;-75
2022/04/08 10:24:29;;;;;;;1.00;0.70;;;8.50;99.90;;;;;;5028761;28;20494;-76
2022/04/08 10:27:09;;;;;;;11.07;1.00;;;8.40;99.90;;;;;;5028592;28;20444;-76
2022/04/08 10:29:36;;;;;;;1.37;1.00;;;8.40;99.90;;;;;;5028771;28;20416;-76
2022/04/08 10:32:13;;;;;;;2.40;1.77;;;8.30;99.90;;;;;;5029058;28;20415;-77
2022/04/08 10:34:39;;;;;;;0.90;0.80;;;8.30;99.90;;;;;;5028709;28;21003;-75
2022/04/08 10:37:22;;;;;;;3.33;2.30;;;8.30;99.90;;;;;;5010652;28;20433;-75
2022/04/08 10:39:59;;;;;;;2.60;0.83;;;8.30;99.90;;;;;;5027705;28;20484;-75
2022/04/08 10:42:27;;;;;;;1.90;1.17;;;8.30;99.90;;;;;;5029053;28;20421;-74
2022/04/08 10:44:53;;;;;;;3.80;0.93;;;8.20;99.90;;;;;;5030080;28;20462;-76
2022/04/08 10:47:21;;;;;;;2.70;0.77;;;8.10;99.90;;;;;;5029152;28;20443;-76
2022/04/08 10:49:56;;;;;;;2.80;1.00;;;8.00;99.90;;;;;;5029292;28;20180;-75
2022/04/08 10:52:25;;;;;;;0.90;0.80;;;8.00;99.90;;;;;;5029156;28;20476;-76
2022/04/08 10:54:51;;;;;;;2.90;0.90;;;7.90;99.90;;;;;;5029083;28;20447;-75
2022/04/08 10:57:53;;;;;;;2.00;1.40;;;7.90;99.90;;;;;;5029406;28;20423;-76
2022/04/08 11:00:19;;;;;;;1.90;1.27;;;8.00;99.90;;;;;;5016844;28;20497;-76
2022/04/08 11:02:48;;;;;;;2.57;1.20;;;8.00;99.90;;;;;;5029833;28;20411;-78
2022/04/08 11:05:16;;;;;;;1.30;1.20;;;8.00;99.90;;;;;;4995663;28;20454;-77
2022/04/08 11:07:43;;;;;;;3.27;1.17;;;8.00;99.90;;;;;;5029460;28;20499;-76
2022/04/08 11:10:14;;;;;;;2.13;1.20;;;8.00;99.90;;;;;;5010890;28;20438;-77
2022/04/08 11:12:44;;;;;;;2.20;1.43;;;8.00;99.90;;;;;;5011626;28;20466;-77
2022/04/08 11:15:22;;;;;;;3.80;1.30;;;7.90;99.90;;;;;;5029090;28;20821;-76
2022/04/08 11:17:49;;;;;;;2.23;1.77;;;7.90;99.90;;;;;;5029400;28;20934;-77
2022/04/08 11:20:20;;;;;;;2.40;1.63;;;8.00;99.90;;;;;;5029353;28;20466;-77
2022/04/08 11:22:50;;;;;;;8.33;1.37;;;7.90;99.90;;;;;;5010295;28;20459;-77
2022/04/08 11:25:34;;;;;;;1.90;1.10;;;7.90;99.90;;;;;;5029144;28;20447;-77
2022/04/08 11:28:03;;;;;;;2.30;2.10;;;8.00;99.90;;;;;;5029118;28;20423;-76
2022/04/08 11:30:35;;;;;;;11.60;2.00;;;8.00;99.90;;;;;;5029179;28;20419;-77
2022/04/08 11:33:14;;;;;;;1.90;1.40;;;8.00;99.90;;;;;;5011205;28;20435;-77
2022/04/08 11:35:40;;;;;;;7.43;2.03;;;8.00;99.90;;;;;;5029223;28;20431;-77
2022/04/08 11:38:14;;;;;;;2.57;2.10;;;8.10;99.90;;;;;;5010945;28;20435;-77
2022/04/08 11:40:40;;;;;;;4.13;2.23;;;8.10;99.90;;;;;;5028943;28;20462;-76
2022/04/08 11:43:05;;;;;;;7.37;1.90;;;8.10;99.90;;;;;;5011206;28;20458;-77
2022/04/08 11:45:31;;;;;;;2.90;1.90;;;8.00;99.90;;;;;;5028790;28;20276;-76
2022/04/08 11:47:57;;;;;;;3.30;2.67;;;8.00;99.90;;;;;;5011122;28;20415;-78
2022/04/08 11:50:24;;;;;;;1.63;1.53;;;8.00;99.90;;;;;;5010935;28;20185;-77
2022/04/08 11:52:55;;;;;;;1.70;1.60;;;8.10;99.90;;;;;;5029170;28;20263;-77
2022/04/08 11:55:26;;;;;;;2.10;2.00;;;8.10;99.90;;;;;;5011461;28;20431;-77
2022/04/08 11:57:53;;;;;;;2.73;2.43;;;8.10;99.90;;;;;;5028906;28;20955;-78
2022/04/08 12:00:28;;;;;;;2.47;1.50;;;8.20;99.90;;;;;;5028499;28;21022;-76
2022/04/08 12:02:58;;;;;;;2.83;2.03;;;8.20;99.90;;;;;;5010621;28;20438;-77
2022/04/08 12:05:31;;;;;;;3.80;1.77;;;8.20;99.90;;;;;;5028675;28;20529;-77
2022/04/08 12:07:59;;;;;;;3.23;1.70;;;8.30;99.90;;;;;;5028863;28;20910;-76
2022/04/08 12:10:25;;;;;;;2.40;1.50;;;8.20;99.90;;;;;;5028796;28;20434;-77
2022/04/08 12:12:52;;;;;;;1.30;1.20;;;8.20;99.90;;;;;;5010884;28;20423;-77
2022/04/08 12:15:24;;;;;;;1.87;1.43;;;8.20;99.90;;;;;;5028456;28;20451;-76
2022/04/08 12:17:51;;;;;;;1.63;1.53;;;8.10;99.90;;;;;;5028446;28;20434;-75
2022/04/08 12:20:19;;;;;;;2.93;1.23;;;8.20;99.90;;;;;;4994274;28;21144;-78
2022/04/08 12:22:46;;;;;;;2.03;1.73;;;8.10;99.90;;;;;;5028296;28;21246;-77
2022/04/08 12:25:13;;;;;;;2.90;1.90;;;8.10;99.90;;;;;;5010790;28;20950;-77
2022/04/08 12:27:39;;;;;;;7.43;3.60;;;8.30;99.90;;;;;;5010520;28;20427;-78
2022/04/08 12:30:08;;;;;;;3.53;2.60;;;8.20;99.90;;;;;;5029233;28;20461;-76
2022/04/08 12:32:40;;;;;;;2.00;1.77;;;8.10;99.90;;;;;;5029368;28;20518;-77
2022/04/08 12:35:08;;;;;;;4.70;1.97;;;8.10;99.90;;;;;;5029196;28;20439;-78
2022/04/08 12:37:35;;;;;;;3.93;1.70;;;8.00;99.90;;;;;;5029728;28;21041;-77
2022/04/08 12:40:00;;;;;;;1.93;1.80;;;8.00;99.90;;;;;;5011567;28;20843;-77
2022/04/08 12:42:26;;;;;;;1.90;1.80;;;8.00;99.90;;;;;;5013578;28;20450;-77
2022/04/08 12:44:52;;;;;;;2.27;1.97;;;8.00;99.90;;;;;;5011111;28;22272;-77
2022/04/08 12:47:17;;;;;;;3.43;1.60;;;7.90;99.90;;;;;;4995178;28;20199;-78
2022/04/08 12:49:43;;;;;;;4.23;2.10;;;8.00;99.90;;;;;;4995379;28;20184;-78
2022/04/08 12:52:08;;;;;;;2.00;1.90;;;7.90;99.90;;;;;;5029802;28;20180;-78
2022/04/08 12:54:34;;;;;;;6.47;2.30;;;7.90;99.90;;;;;;5029962;28;20191;-77
2022/04/08 12:57:00;;;;;;;2.40;2.23;;;7.90;99.90;;;;;;5029732;28;20252;-77
2022/04/08 12:59:27;;;;;;;1.80;1.70;;;7.90;99.90;;;;;;5029219;28;20209;-77